SBKP/CPQ METAR and TAF weather

Enter ICAO airport designator
Station Type Date Time Source
SBKP METAR 2019/06/17 15:00 UTC NOAA

SBKP 171500Z VRB03KT 9999 FEW035 BKN050 24/13 Q1024


Station Type Date Time Source
SBKP Decoded METAR 2019/06/17 15:00 UTC NOAA

Campinas Aeroporto , Brazil (SBKP) 23-00S 047-08W 661M
Jun 17, 2019 - 11:00 AM EDT / 2019.06.17 1500 UTC
Wind: Variable at 3 MPH (3 KT):0
Visibility: greater than 7 mile(s):0
Sky conditions: mostly cloudy
Temperature: 75 F (24 C)
Dew Point: 55 F (13 C)
Relative Humidity: 50%
Pressure (altimeter): 30.24 in. Hg (1024 hPa)
ob: SBKP 171500Z VRB03KT 9999 FEW035 BKN050 24/13 Q1024
cycle: 15

Station Type Date Time Source
SBKP TAF 2019/06/17 12:24 UTC NOAA

TAF TAF SBKP 171002Z 1712/1812 11008KT CAVOK TX26/1718Z TN16/1809Z
BECMG 1714/1716 10007KT
BECMG 1719/1721 14010KT
BECMG 1802/1804 12010KT
RMK PGM

Example: see airport list